Time;durP1;ratioP1;P1;durP2;ratioP2;P2;SDS_P1;SDS_P2;PMS_P1;PMS_P2;Temp;Humidity;BMP_temperature;BMP_pressure;BME280_temperature;BME280_humidity;BME280_pressure;Samples;Min_cycle;Max_cycle;Signal;HPM_P1;HPM_P2
2021/04/05 00:01:30;;;;;;;17.48;9.07;;;;;;;1.91;62.56;99839.64;104360;1104;64425;-72
2021/04/05 00:03:36;;;;;;;16.75;9.98;;;;;;;1.93;62.10;99835.00;104343;1104;82764;-69
2021/04/05 00:05:41;;;;;;;14.50;9.10;;;;;;;1.91;61.97;99829.84;104373;1103;71849;-68
2021/04/05 00:07:49;;;;;;;18.30;9.95;;;;;;;1.90;62.35;99828.14;104383;1104;83398;-72
2021/04/05 00:09:54;;;;;;;13.07;9.13;;;;;;;1.91;62.54;99823.66;104377;1105;77173;-71
2021/04/05 00:12:04;;;;;;;13.13;8.13;;;;;;;1.90;62.33;99824.64;104364;1104;64246;-69
2021/04/05 00:14:10;;;;;;;14.50;7.70;;;;;;;1.89;62.10;99820.31;104375;1104;81443;-69
2021/04/05 00:16:19;;;;;;;14.03;7.13;;;;;;;1.91;62.23;99802.36;104390;1104;72078;-69
2021/04/05 00:18:28;;;;;;;13.43;8.10;;;;;;;1.92;62.20;99806.71;104415;1104;84101;-69
2021/04/05 00:20:37;;;;;;;13.45;7.53;;;;;;;1.95;62.70;99798.42;104389;1104;77926;-69
2021/04/05 00:22:44;;;;;;;13.40;7.95;;;;;;;1.94;62.08;99794.92;104407;1104;64210;-70
2021/04/05 00:24:49;;;;;;;16.27;7.85;;;;;;;1.96;62.57;99789.42;104395;1103;81732;-72
2021/04/05 00:26:55;;;;;;;15.02;9.27;;;;;;;1.97;62.82;99789.30;104340;1104;71882;-70
2021/04/05 00:29:00;;;;;;;19.67;11.50;;;;;;;1.99;62.89;99786.47;104394;1103;84783;-69
2021/04/05 00:31:09;;;;;;;15.87;10.03;;;;;;;2.04;62.62;99786.85;104328;1104;80791;-70
2021/04/05 00:33:15;;;;;;;15.43;9.23;;;;;;;2.03;62.58;99771.88;104413;1104;64291;-71
2021/04/05 00:35:24;;;;;;;14.25;8.65;;;;;;;2.00;62.51;99772.17;104381;1104;80845;-72
2021/04/05 00:37:33;;;;;;;13.70;8.02;;;;;;;1.97;62.81;99780.46;104406;1104;71930;-69
2021/04/05 00:39:41;;;;;;;14.30;9.75;;;;;;;1.97;62.57;99773.31;104391;1104;84045;-70
2021/04/05 00:41:53;;;;;;;18.10;10.90;;;;;;;1.96;62.45;99773.45;104359;1104;79445;-70
2021/04/05 00:43:58;;;;;;;20.90;13.05;;;;;;;1.95;62.84;99763.80;104389;1104;64079;-69
2021/04/05 00:46:06;;;;;;;17.73;10.43;;;;;;;1.93;62.62;99760.43;104388;1104;81117;-70
2021/04/05 00:48:15;;;;;;;17.07;10.57;;;;;;;1.92;63.25;99748.13;104387;1105;72401;-73
2021/04/05 00:50:36;;;;;;;15.60;9.20;;;;;;;1.91;63.04;99744.61;104335;1104;85287;-71
2021/04/05 00:52:44;;;;;;;15.57;9.38;;;;;;;1.93;63.27;99736.45;104409;1104;77248;-71
2021/04/05 00:54:50;;;;;;;14.38;8.25;;;;;;;1.93;63.35;99731.97;104391;1104;64182;-72
2021/04/05 00:56:56;;;;;;;14.65;7.93;;;;;;;1.93;63.06;99734.64;104371;1104;82458;-70
2021/04/05 00:59:02;;;;;;;14.20;8.88;;;;;;;1.95;62.98;99731.84;104435;1104;71830;-69
2021/04/05 01:01:11;;;;;;;17.30;9.30;;;;;;;1.95;63.02;99723.85;104379;1104;84820;-68
2021/04/05 01:03:20;;;;;;;15.43;9.20;;;;;;;1.97;63.29;99719.20;104412;1104;76969;-70
2021/04/05 01:05:29;;;;;;;13.93;8.30;;;;;;;1.97;62.91;99712.06;104413;1104;64265;-71
2021/04/05 01:07:38;;;;;;;11.38;7.22;;;;;;;1.93;62.92;99710.67;104412;1104;81677;-69
2021/04/05 01:09:43;;;;;;;12.73;7.77;;;;;;;1.94;62.85;99708.84;104401;1104;70938;-69
2021/04/05 01:11:49;;;;;;;16.27;9.03;;;;;;;1.89;62.95;99709.31;104399;1104;84900;-69
2021/04/05 01:13:57;;;;;;;13.33;7.97;;;;;;;1.87;63.38;99702.47;104334;1104;78946;-70
2021/04/05 01:16:04;;;;;;;13.75;7.88;;;;;;;1.89;63.53;99698.66;104383;1104;64115;-71
2021/04/05 01:18:14;;;;;;;16.08;8.27;;;;;;;1.89;63.25;99695.16;104386;1104;81668;-69
2021/04/05 01:20:21;;;;;;;16.02;9.52;;;;;;;1.84;63.45;99684.13;104411;1104;71157;-69
2021/04/05 01:22:27;;;;;;;15.63;8.55;;;;;;;1.85;63.55;99685.78;104414;1104;82888;-69
2021/04/05 01:24:32;;;;;;;13.30;8.20;;;;;;;1.83;63.09;99688.61;104334;1104;79499;-69
2021/04/05 01:26:37;;;;;;;13.15;7.63;;;;;;;1.83;63.57;99677.95;104364;1104;64201;-68
2021/04/05 01:28:43;;;;;;;14.30;7.80;;;;;;;1.84;63.34;99674.28;104417;1104;82249;-71
2021/04/05 01:30:51;;;;;;;13.50;8.13;;;;;;;1.81;63.41;99668.45;104368;1104;71298;-72
2021/04/05 01:33:12;;;;;;;17.23;8.63;;;;;;;1.82;63.22;99659.45;104379;1104;84711;-70
2021/04/05 01:35:17;;;;;;;12.75;8.25;;;;;;;1.78;63.47;99653.62;104364;1104;76824;-69
2021/04/05 01:37:22;;;;;;;14.93;8.65;;;;;;;1.74;63.69;99647.75;104419;1104;64147;-69
2021/04/05 01:39:28;;;;;;;15.15;8.70;;;;;;;1.73;63.69;99646.06;104467;1103;81115;-68
2021/04/05 01:41:35;;;;;;;14.18;8.35;;;;;;;1.73;63.38;99647.91;104368;1104;71209;-69
2021/04/05 01:43:49;;;;;;;14.88;7.90;;;;;;;1.70;63.66;99642.89;104476;1104;85004;-70
2021/04/05 01:45:57;;;;;;;16.38;8.35;;;;;;;1.72;63.64;99640.91;104435;1104;78158;-69
2021/04/05 01:48:03;;;;;;;16.83;9.18;;;;;;;1.72;63.58;99635.58;104469;1104;64280;-71
2021/04/05 01:50:12;;;;;;;14.20;8.18;;;;;;;1.73;64.19;99629.28;104397;1104;83025;-71
2021/04/05 01:52:18;;;;;;;14.10;9.43;;;;;;;1.71;64.19;99626.75;104444;1103;72360;-71
2021/04/05 01:54:24;;;;;;;14.05;8.20;;;;;;;1.68;63.89;99627.05;104367;1104;85113;-68
2021/04/05 01:56:30;;;;;;;14.57;8.73;;;;;;;1.65;63.72;99622.03;104396;1104;77137;-69
2021/04/05 01:58:36;;;;;;;15.40;8.18;;;;;;;1.64;64.28;99625.70;104387;1104;64527;-69
2021/04/05 02:00:42;;;;;;;15.45;8.65;;;;;;;1.66;64.07;99617.55;104383;1104;81834;-68
2021/04/05 02:02:48;;;;;;;14.98;9.32;;;;;;;1.66;64.16;99614.88;104385;1104;71575;-70
2021/04/05 02:04:55;;;;;;;15.50;9.27;;;;;;;1.65;63.98;99616.70;104388;1104;84727;-71
2021/04/05 02:07:01;;;;;;;16.58;8.82;;;;;;;1.66;64.26;99614.88;104365;1103;79120;-72
2021/04/05 02:09:08;;;;;;;11.45;6.88;;;;;;;1.60;64.04;99613.66;104385;1104;64131;-71
2021/04/05 02:11:16;;;;;;;12.82;7.72;;;;;;;1.59;64.18;99611.17;104335;1104;82509;-71
2021/04/05 02:13:24;;;;;;;15.32;8.60;;;;;;;1.56;64.37;99606.98;104421;1104;71819;-67
2021/04/05 02:15:29;;;;;;;15.27;8.63;;;;;;;1.54;64.24;99608.94;104395;1104;84457;-67
2021/04/05 02:17:35;;;;;;;13.40;8.53;;;;;;;1.53;63.97;99599.30;104401;1104;78402;-71
2021/04/05 02:19:41;;;;;;;13.98;8.40;;;;;;;1.53;64.39;99593.98;104367;1104;64077;-70
2021/04/05 02:21:49;;;;;;;14.00;9.18;;;;;;;1.53;64.30;99593.14;104343;1104;82154;-71
2021/04/05 02:24:04;;;;;;;12.57;8.48;;;;;;;1.50;64.16;99599.60;104382;1104;71519;-69
2021/04/05 02:26:13;;;;;;;14.27;8.95;;;;;;;1.47;64.31;99583.94;104394;1104;84160;-68
2021/04/05 02:28:18;;;;;;;17.95;9.70;;;;;;;1.48;64.45;99590.09;104353;1104;78211;-69
2021/04/05 02:30:30;;;;;;;15.27;8.80;;;;;;;1.48;64.23;99588.28;104398;1105;64115;-70
2021/04/05 02:32:40;;;;;;;12.88;8.32;;;;;;;1.45;64.16;99583.26;104430;1104;80869;-69
2021/04/05 02:34:46;;;;;;;15.57;9.07;;;;;;;1.45;64.05;99575.27;104401;1105;72443;-69
2021/04/05 02:36:55;;;;;;;15.98;9.20;;;;;;;1.45;64.38;99566.45;104427;1104;85443;-70
2021/04/05 02:39:06;;;;;;;13.88;8.43;;;;;;;1.42;64.18;99556.95;104388;1104;77868;-71
2021/04/05 02:41:17;;;;;;;17.45;9.25;;;;;;;1.41;64.40;99567.73;104402;1104;63980;-71
2021/04/05 02:43:23;;;;;;;17.75;9.82;;;;;;;1.38;64.48;99558.23;104378;1104;81959;-71
2021/04/05 02:45:29;;;;;;;15.52;9.18;;;;;;;1.35;64.75;99549.70;104375;1104;72154;-73
2021/04/05 02:47:36;;;;;;;16.45;9.10;;;;;;;1.34;64.29;99546.23;104357;1104;84630;-70
2021/04/05 02:49:42;;;;;;;14.57;9.17;;;;;;;1.35;64.56;99539.91;104348;1104;78112;-70
2021/04/05 02:51:53;;;;;;;14.98;9.13;;;;;;;1.35;64.76;99529.26;104350;1104;64087;-70
2021/04/05 02:54:01;;;;;;;15.98;9.93;;;;;;;1.34;64.54;99522.28;104400;1104;81768;-70
2021/04/05 02:56:09;;;;;;;18.90;10.20;;;;;;;1.33;64.98;99520.60;104404;1104;71131;-71
2021/04/05 02:58:16;;;;;;;15.57;9.07;;;;;;;1.31;64.33;99511.10;104422;1104;84384;-71
2021/04/05 03:00:24;;;;;;;14.63;8.02;;;;;;;1.26;65.08;99519.55;104354;1104;77343;-70
2021/04/05 03:02:29;;;;;;;16.33;9.43;;;;;;;1.28;64.78;99516.72;104406;1104;64131;-71
2021/04/05 03:04:36;;;;;;;14.85;8.50;;;;;;;1.28;65.09;99514.91;104384;1104;82019;-71
2021/04/05 03:06:45;;;;;;;16.75;9.63;;;;;;;1.29;64.51;99519.25;104403;1104;71053;-70
2021/04/05 03:08:51;;;;;;;14.25;9.05;;;;;;;1.27;64.81;99515.04;104364;1104;84500;-72
2021/04/05 03:10:57;;;;;;;13.02;9.10;;;;;;;1.24;64.49;99515.38;104373;1104;77130;-70
2021/04/05 03:13:03;;;;;;;15.70;9.20;;;;;;;1.21;65.02;99500.52;104409;1104;64112;-69
2021/04/05 03:15:14;;;;;;;13.45;8.07;;;;;;;1.23;65.45;99492.41;104369;1104;82140;-70
2021/04/05 03:17:20;;;;;;;17.00;10.57;;;;;;;1.21;65.49;99489.88;104421;1104;70721;-70
2021/04/05 03:19:27;;;;;;;13.70;9.27;;;;;;;1.24;65.23;99488.77;104422;1104;83758;-69
2021/04/05 03:21:34;;;;;;;15.55;9.98;;;;;;;1.23;65.02;99471.13;104353;1105;77291;-68
2021/04/05 03:23:41;;;;;;;16.77;9.45;;;;;;;1.19;65.02;99451.97;104342;1104;64288;-71
2021/04/05 03:25:46;;;;;;;17.83;9.70;;;;;;;1.15;65.41;99455.94;104370;1104;81502;-71
2021/04/05 03:27:53;;;;;;;17.47;10.10;;;;;;;1.17;65.44;99449.48;104404;1104;71903;-70
2021/04/05 03:30:02;;;;;;;17.20;9.87;;;;;;;1.25;65.52;99455.84;104374;1105;83297;-71
2021/04/05 03:32:11;;;;;;;21.10;10.93;;;;;;;1.19;65.65;99450.16;104378;1104;78319;-69
2021/04/05 03:34:21;;;;;;;16.98;9.90;;;;;;;1.19;65.25;99446.65;104349;1105;64109;-69
2021/04/05 03:36:31;;;;;;;20.17;10.93;;;;;;;1.20;65.70;99429.72;104372;1104;81590;-68
2021/04/05 03:38:38;;;;;;;17.45;10.48;;;;;;;1.23;65.30;99424.09;104443;1104;71224;-71
2021/04/05 03:40:44;;;;;;;16.83;11.10;;;;;;;1.27;65.48;99422.78;104368;1104;84085;-71
2021/04/05 03:42:56;;;;;;;18.45;10.35;;;;;;;1.30;65.66;99425.13;104430;1104;77232;-70
2021/04/05 03:45:11;;;;;;;15.88;9.73;;;;;;;1.27;65.88;99420.12;104361;1104;64243;-70
2021/04/05 03:47:22;;;;;;;16.85;10.50;;;;;;;1.23;66.06;99417.92;104373;1104;81847;-70
2021/04/05 03:49:34;;;;;;;17.50;10.85;;;;;;;1.23;65.80;99408.13;104355;1105;73085;-70
2021/04/05 03:51:49;;;;;;;18.10;10.48;;;;;;;1.19;65.84;99402.27;104359;1104;84853;-71
2021/04/05 03:54:05;;;;;;;18.37;10.37;;;;;;;1.22;66.10;99385.17;104388;1104;77637;-72
2021/04/05 03:56:15;;;;;;;18.30;10.13;;;;;;;1.21;66.13;99378.17;104347;1105;64249;-72
2021/04/05 03:58:27;;;;;;;19.38;9.93;;;;;;;1.19;66.64;99369.52;104333;1104;81472;-71
2021/04/05 04:00:34;;;;;;;17.55;10.80;;;;;;;1.21;66.49;99362.20;104373;1104;71677;-71
2021/04/05 04:02:45;;;;;;;22.75;11.30;;;;;;;1.19;66.28;99362.38;104383;1104;84979;-71
2021/04/05 04:05:00;;;;;;;16.20;11.20;;;;;;;1.24;66.52;99366.41;104366;1105;78257;-71
2021/04/05 04:07:13;;;;;;;16.73;10.48;;;;;;;1.30;66.55;99365.77;104377;1104;64217;-69
2021/04/05 04:09:21;;;;;;;19.80;10.93;;;;;;;1.31;66.50;99354.98;104413;1104;81033;-71
2021/04/05 04:11:29;;;;;;;19.92;10.98;;;;;;;1.37;66.23;99354.36;104370;1104;72112;-71
2021/04/05 04:13:40;;;;;;;17.15;10.95;;;;;;;1.40;65.81;99348.70;104416;1104;83725;-69
2021/04/05 04:15:50;;;;;;;18.50;11.77;;;;;;;1.42;65.97;99352.06;104356;1104;77062;-69
2021/04/05 04:17:58;;;;;;;17.70;10.43;;;;;;;1.43;66.29;99345.73;104417;1105;64118;-74
2021/04/05 04:20:11;;;;;;;19.00;10.48;;;;;;;1.43;66.77;99343.07;104393;1104;81101;-73
2021/04/05 04:22:19;;;;;;;20.00;12.35;;;;;;;1.47;66.50;99336.45;104407;1104;70976;-69
2021/04/05 04:24:24;;;;;;;18.13;10.53;;;;;;;1.57;65.97;99331.00;104357;1104;85651;-70
2021/04/05 04:26:33;;;;;;;19.50;10.83;;;;;;;1.64;66.29;99326.73;104378;1104;77162;-69
2021/04/05 04:28:44;;;;;;;20.63;11.80;;;;;;;1.72;66.09;99324.95;104349;1104;64138;-69
2021/04/05 04:31:01;;;;;;;21.43;11.87;;;;;;;1.76;66.22;99320.12;104401;1104;80609;-70
2021/04/05 04:33:09;;;;;;;18.77;12.07;;;;;;;1.85;65.99;99318.33;104390;1104;71936;-72
2021/04/05 04:35:17;;;;;;;22.13;12.17;;;;;;;1.94;65.79;99298.73;104384;1103;84365;-71
2021/04/05 04:37:23;;;;;;;18.25;11.48;;;;;;;1.98;66.26;99284.92;104376;1104;77837;-73
2021/04/05 04:39:29;;;;;;;21.67;12.40;;;;;;;2.08;65.92;99268.81;104513;1103;64192;-72
2021/04/05 04:41:34;;;;;;;23.03;11.93;;;;;;;2.15;65.68;99267.16;104481;1105;82348;-73
2021/04/05 04:43:39;;;;;;;21.05;12.20;;;;;;;2.24;65.86;99260.85;104409;1105;71864;-74
2021/04/05 04:45:46;;;;;;;18.57;12.43;;;;;;;2.50;65.81;99256.20;104376;1104;84459;-73
2021/04/05 04:47:55;;;;;;;19.83;11.82;;;;;;;3.26;65.76;99253.13;104366;1105;78144;-70
2021/04/05 04:50:00;;;;;;;20.08;12.25;;;;;;;3.98;64.91;99239.47;104436;1104;64111;-71
2021/04/05 04:52:07;;;;;;;18.63;12.02;;;;;;;4.63;64.42;99247.05;104476;1105;81657;-70
2021/04/05 04:54:14;;;;;;;19.80;11.70;;;;;;;5.20;63.21;99240.16;104399;1104;71632;-69
2021/04/05 04:56:23;;;;;;;18.15;12.48;;;;;;;5.59;62.07;99241.73;104375;1104;84356;-68
2021/04/05 04:58:28;;;;;;;19.35;12.50;;;;;;;5.64;61.25;99244.67;104468;1104;76813;-69
2021/04/05 05:00:35;;;;;;;19.52;11.27;;;;;;;5.75;61.23;99234.33;104399;1105;64301;-69
2021/04/05 05:02:43;;;;;;;19.40;11.10;;;;;;;5.97;60.89;99235.23;104386;1104;81793;-71
2021/04/05 05:04:50;;;;;;;16.77;11.15;;;;;;;5.98;59.42;99228.88;104363;1105;71974;-71
2021/04/05 05:07:01;;;;;;;19.85;11.88;;;;;;;6.01;59.71;99230.34;104381;1104;84305;-71
2021/04/05 05:09:08;;;;;;;21.08;12.70;;;;;;;6.16;58.81;99210.50;104353;1104;78409;-71
2021/04/05 05:11:14;;;;;;;18.38;11.90;;;;;;;6.42;59.03;99209.95;104389;1104;64073;-72
2021/04/05 05:13:20;;;;;;;18.88;11.93;;;;;;;6.74;58.49;99204.04;104388;1104;81599;-70
2021/04/05 05:15:26;;;;;;;16.30;10.95;;;;;;;6.99;57.53;99199.07;104359;1104;71609;-71
2021/04/05 05:17:33;;;;;;;19.08;11.57;;;;;;;7.28;57.86;99198.03;104359;1104;85577;-69
2021/04/05 05:19:40;;;;;;;17.63;11.33;;;;;;;8.28;56.32;99201.78;104372;1104;77142;-70
2021/04/05 05:21:51;;;;;;;19.20;12.55;;;;;;;8.76;55.30;99205.16;104375;1104;64246;-71
2021/04/05 05:24:03;;;;;;;14.98;10.25;;;;;;;9.34;53.71;99203.42;104364;1104;81370;-69
2021/04/05 05:26:12;;;;;;;15.25;11.23;;;;;;;9.90;53.55;99204.51;104390;1104;71821;-69
2021/04/05 05:28:25;;;;;;;16.75;11.18;;;;;;;10.18;52.04;99206.90;104431;1104;84090;-69
2021/04/05 05:30:31;;;;;;;14.55;10.75;;;;;;;10.68;51.10;99196.20;104352;1103;78085;-70
2021/04/05 05:32:38;;;;;;;17.58;10.57;;;;;;;10.93;49.80;99199.74;104407;1104;64410;-69
2021/04/05 05:34:46;;;;;;;17.15;11.43;;;;;;;11.32;49.81;99190.45;104358;1104;81320;-68
2021/04/05 05:36:52;;;;;;;16.13;11.25;;;;;;;11.73;48.75;99190.61;104382;1104;71774;-70
2021/04/05 05:39:00;;;;;;;16.60;11.55;;;;;;;12.00;47.52;99186.56;104352;1104;84397;-69
2021/04/05 05:41:16;;;;;;;18.05;11.63;;;;;;;12.34;47.55;99177.73;104392;1104;76905;-69
2021/04/05 05:43:37;;;;;;;17.30;11.65;;;;;;;12.55;46.45;99178.28;104368;1104;64208;-71
2021/04/05 05:46:03;;;;;;;16.20;11.60;;;;;;;12.09;45.53;99173.50;104404;1104;82854;-71
2021/04/05 05:48:22;;;;;;;18.60;11.55;;;;;;;12.59;45.01;99161.32;104403;1104;71171;-72
2021/04/05 05:50:50;;;;;;;17.15;10.95;;;;;;;12.68;44.77;99153.69;104377;1104;85414;-73
2021/04/05 05:53:19;;;;;;;14.57;11.00;;;;;;;12.50;44.31;99159.99;104381;1104;77090;-69
2021/04/05 05:55:49;;;;;;;17.73;11.50;;;;;;;12.80;44.42;99151.83;104415;1105;64230;-70
2021/04/05 05:58:08;;;;;;;15.30;10.45;;;;;;;13.34;43.81;99148.80;104397;1104;82366;-71
2021/04/05 06:00:22;;;;;;;17.70;11.43;;;;;;;13.71;43.03;99137.61;104375;1104;71199;-71
2021/04/05 06:02:48;;;;;;;15.20;10.50;;;;;;;14.13;41.79;99136.30;104426;1104;83649;-71
2021/04/05 06:05:12;;;;;;;11.77;9.60;;;;;;;14.00;40.08;99140.14;104420;1104;77373;-72
2021/04/05 06:07:28;;;;;;;14.68;10.98;;;;;;;14.04;39.92;99122.27;104436;1103;64003;-69
2021/04/05 06:10:00;;;;;;;14.40;10.68;;;;;;;13.99;40.93;99119.47;104375;1104;82540;-70
2021/04/05 06:12:14;;;;;;;15.82;11.00;;;;;;;14.06;40.93;99130.20;104411;1104;70561;-69
2021/04/05 06:14:33;;;;;;;15.52;10.73;;;;;;;14.07;40.85;99123.68;104356;1103;84133;-69
2021/04/05 06:16:52;;;;;;;16.58;10.38;;;;;;;14.85;39.43;99115.58;104369;1103;77276;-69
2021/04/05 06:19:19;;;;;;;15.30;10.60;;;;;;;15.30;37.80;99109.97;104343;1103;64114;-72
2021/04/05 06:21:41;;;;;;;15.15;10.52;;;;;;;15.60;39.11;99107.67;104384;1104;82689;-72
2021/04/05 06:23:54;;;;;;;15.88;10.50;;;;;;;15.83;37.23;99112.05;104449;1104;71008;-72
2021/04/05 06:26:15;;;;;;;14.40;10.80;;;;;;;15.81;38.00;99101.42;104357;1104;85228;-70
2021/04/05 06:28:35;;;;;;;16.73;11.30;;;;;;;14.86;37.54;99106.33;104385;1104;77174;-72
2021/04/05 06:30:54;;;;;;;13.95;10.55;;;;;;;14.34;37.61;99103.02;104366;1104;64115;-72
2021/04/05 06:33:14;;;;;;;13.13;9.80;;;;;;;14.84;38.13;99088.62;104403;1104;82321;-73
2021/04/05 06:36:07;;;;;;;14.35;9.77;;;;;;;15.22;37.56;99085.91;104391;1104;71762;-72
2021/04/05 06:38:22;;;;;;;15.15;10.25;;;;;;;15.42;37.58;99088.09;104411;1104;84785;-72
2021/04/05 06:40:37;;;;;;;15.05;10.13;;;;;;;15.74;38.22;99084.44;104371;1104;78715;-73
2021/04/05 06:43:21;;;;;;;15.75;10.40;;;;;;;15.86;37.49;99081.58;104410;1104;64204;-69
2021/04/05 06:46:08;;;;;;;19.02;10.75;;;;;;;15.40;37.09;99079.36;104361;1104;82344;-70
2021/04/05 06:49:03;;;;;;;15.90;10.73;;;;;;;15.65;37.62;99066.93;104326;1105;71965;-70
2021/04/05 06:51:42;;;;;;;13.18;10.40;;;;;;;15.65;37.03;99061.48;104234;1104;84972;-71
2021/04/05 06:54:26;;;;;;;16.33;10.10;;;;;;;15.60;36.75;99057.88;104314;1104;78130;-71
2021/04/05 06:56:54;;;;;;;-1.00;-1.00;;;;;;;15.46;36.48;99046.56;104306;1104;64112;-68
2021/04/05 06:59:28;;;;;;;12.93;9.18;;;;;;;15.91;36.74;99035.33;105099;1104;81916;-69
2021/04/05 07:02:08;;;;;;;-1.00;-1.00;;;;;;;16.78;36.09;99035.86;104375;1104;73095;-74
2021/04/05 07:04:52;;;;;;;12.98;8.93;;;;;;;17.15;35.84;99024.88;104394;1104;84967;-70
2021/04/05 07:07:11;;;;;;;13.75;9.40;;;;;;;17.60;35.64;99014.19;104380;1104;78534;-73
2021/04/05 07:09:26;;;;;;;14.02;8.27;;;;;;;18.00;34.80;99005.24;104426;1104;64800;-69
2021/04/05 07:11:55;;;;;;;14.23;8.63;;;;;;;18.04;34.19;99008.27;104386;1103;81328;-70
2021/04/05 07:14:13;;;;;;;13.00;8.98;;;;;;;18.07;34.03;99007.72;104389;1104;71851;-69
2021/04/05 07:16:42;;;;;;;16.63;8.73;;;;;;;18.19;34.15;99005.53;104433;1104;84873;-76
2021/04/05 07:19:05;;;;;;;12.48;8.60;;;;;;;18.54;33.95;98996.55;104435;1104;77635;-76
2021/04/05 07:21:34;;;;;;;13.73;8.32;;;;;;;18.92;33.72;98992.38;104484;1104;64748;-77
2021/04/05 07:24:14;;;;;;;13.48;8.30;;;;;;;19.38;33.21;98991.97;104381;1104;82447;-68
2021/04/05 07:26:26;;;;;;;12.40;7.88;;;;;;;19.04;32.76;98979.18;104477;1104;72413;-67
2021/04/05 07:28:47;;;;;;;12.32;8.45;;;;;;;18.95;32.22;98991.82;104459;1104;84175;-68
2021/04/05 07:31:09;;;;;;;12.90;7.72;;;;;;;18.61;31.52;98977.93;104423;1104;78632;-67
2021/04/05 07:33:36;;;;;;;13.38;7.93;;;;;;;18.56;32.67;98981.50;104425;1104;64057;-67
2021/04/05 07:35:59;;;;;;;16.00;8.30;;;;;;;18.89;32.02;98966.39;104410;1104;81525;-66
2021/04/05 07:38:12;;;;;;;12.05;8.32;;;;;;;18.83;31.58;98964.75;104397;1104;70887;-78
2021/04/05 07:40:39;;;;;;;12.80;7.90;;;;;;;18.54;30.83;98952.79;104426;1104;83616;-78
2021/04/05 07:42:52;;;;;;;11.68;7.63;;;;;;;18.87;31.70;98946.66;104398;1104;79020;-78
2021/04/05 07:45:09;;;;;;;11.32;7.63;;;;;;;18.98;29.66;98942.00;104422;1105;64201;-79
2021/04/05 07:47:29;;;;;;;13.45;8.07;;;;;;;18.89;30.33;98946.41;104423;1104;81284;-80
2021/04/05 07:49:44;;;;;;;10.65;7.57;;;;;;;19.45;31.01;98922.38;104457;1104;71454;-80
2021/04/05 07:51:57;;;;;;;11.20;7.90;;;;;;;19.14;29.60;98925.23;104376;1105;85012;-72
2021/04/05 07:54:07;;;;;;;9.68;6.45;;;;;;;19.15;29.52;98910.43;104357;1104;79073;-67
2021/04/05 07:56:22;;;;;;;9.77;6.55;;;;;;;19.88;30.12;98899.60;104457;1104;64138;-67
2021/04/05 07:58:46;;;;;;;10.20;7.32;;;;;;;20.84;28.57;98906.91;104371;1104;80895;-68
2021/04/05 08:01:06;;;;;;;8.48;6.30;;;;;;;21.00;28.79;98902.88;104413;1104;70534;-68
2021/04/05 08:03:34;;;;;;;8.80;5.85;;;;;;;21.25;27.61;98899.84;104390;1104;83104;-69
2021/04/05 08:05:51;;;;;;;9.70;6.18;;;;;;;21.46;27.60;98887.44;104391;1104;78049;-70
2021/04/05 08:08:21;;;;;;;8.88;6.38;;;;;;;22.06;25.56;98877.44;104434;1104;64131;-68
2021/04/05 08:10:38;;;;;;;10.48;5.88;;;;;;;21.46;26.29;98898.44;104413;1104;81943;-67
2021/04/05 08:12:56;;;;;;;7.13;5.10;;;;;;;21.26;26.61;98890.47;104440;1105;71247;-67
2021/04/05 08:15:20;;;;;;;6.57;5.60;;;;;;;21.36;26.39;98871.11;104378;1105;84516;-68
2021/04/05 08:17:54;;;;;;;8.38;5.30;;;;;;;21.15;26.47;98867.81;104432;1104;77470;-68
2021/04/05 08:20:09;;;;;;;6.85;5.35;;;;;;;21.15;26.26;98869.77;104403;1104;64112;-72
2021/04/05 08:22:27;;;;;;;8.32;5.63;;;;;;;21.53;27.19;98865.92;104443;1104;81949;-70
2021/04/05 08:24:51;;;;;;;7.78;5.38;;;;;;;22.51;26.02;98862.05;104413;1104;71742;-73
2021/04/05 08:27:06;;;;;;;8.45;5.20;;;;;;;22.77;26.22;98860.45;104430;1105;84707;-74
2021/04/05 08:29:21;;;;;;;8.07;5.50;;;;;;;21.31;24.18;98860.20;104393;1105;78954;-73
2021/04/05 08:31:47;;;;;;;9.05;6.00;;;;;;;19.57;25.04;98852.43;104439;1104;64112;-69
2021/04/05 08:34:13;;;;;;;7.78;4.88;;;;;;;18.46;26.32;98849.41;104395;1104;82317;-69
2021/04/05 08:36:31;;;;;;;8.80;6.03;;;;;;;17.79;27.94;98860.70;104460;1104;72236;-70
2021/04/05 08:39:01;;;;;;;8.00;5.55;;;;;;;17.37;28.36;98839.06;104431;1104;84263;-70
2021/04/05 08:41:21;;;;;;;9.85;5.43;;;;;;;16.92;29.11;98826.96;104400;1105;79240;-70
2021/04/05 08:43:40;;;;;;;10.18;6.13;;;;;;;16.68;28.92;98831.25;104442;1104;64182;-70
2021/04/05 08:45:52;;;;;;;8.63;5.57;;;;;;;15.93;29.50;98826.20;104382;1104;81568;-70
2021/04/05 08:48:07;;;;;;;10.07;5.80;;;;;;;16.01;30.00;98819.44;104434;1103;71681;-69
2021/04/05 08:50:16;;;;;;;9.77;5.80;;;;;;;16.24;30.36;98798.04;104394;1104;84968;-69
2021/04/05 08:52:26;;;;;;;9.93;5.72;;;;;;;16.14;30.59;98792.55;104411;1104;77203;-70
2021/04/05 08:54:36;;;;;;;8.25;5.68;;;;;;;15.75;30.58;98794.75;104413;1105;64102;-69
2021/04/05 08:56:50;;;;;;;9.45;5.80;;;;;;;15.61;31.13;98779.95;104388;1105;82092;-69
2021/04/05 08:59:02;;;;;;;9.10;5.55;;;;;;;15.99;31.38;98775.31;104366;1104;71640;-70
2021/04/05 09:01:13;;;;;;;8.85;5.97;;;;;;;15.92;31.26;98761.91;104396;1104;83516;-70
2021/04/05 09:03:28;;;;;;;12.02;6.05;;;;;;;15.75;31.67;98758.53;104372;1104;78017;-70
2021/04/05 09:05:38;;;;;;;10.60;6.13;;;;;;;15.70;31.67;98756.61;104393;1104;64336;-70
2021/04/05 09:08:00;;;;;;;11.40;6.07;;;;;;;15.64;31.86;98738.59;104459;1104;81381;-69
2021/04/05 09:10:09;;;;;;;7.95;5.90;;;;;;;15.42;32.33;98746.02;104422;1104;71352;-68
2021/04/05 09:12:21;;;;;;;11.48;6.35;;;;;;;15.37;31.81;98745.98;104393;1104;85668;-69
2021/04/05 09:14:30;;;;;;;10.25;6.80;;;;;;;15.21;32.40;98736.89;104427;1104;77460;-68
2021/04/05 09:17:11;;;;;;;11.27;6.70;;;;;;;15.07;32.92;98751.17;104380;1104;64298;-69
2021/04/05 09:19:41;;;;;;;9.40;6.03;;;;;;;15.11;32.79;98749.56;104396;1104;81439;-69
2021/04/05 09:22:32;;;;;;;10.38;6.25;;;;;;;14.77;32.66;98746.27;104369;1104;70759;-66
2021/04/05 09:25:03;;;;;;;9.30;5.65;;;;;;;14.46;33.16;98752.44;104299;1105;83802;-72
2021/04/05 09:27:37;;;;;;;10.60;6.50;;;;;;;14.06;33.43;98741.89;104350;1104;77663;-71
2021/04/05 09:30:05;;;;;;;11.50;6.22;;;;;;;13.80;33.92;98748.86;104393;1104;64138;-70
2021/04/05 09:32:46;;;;;;;10.85;6.03;;;;;;;13.69;34.21;98738.11;104406;1105;81647;-70
2021/04/05 09:35:34;;;;;;;10.70;5.72;;;;;;;13.89;34.94;98725.66;104425;1104;70645;-69
2021/04/05 09:38:34;;;;;;;9.80;5.57;;;;;;;13.95;34.61;98723.83;104400;1105;85480;-70
2021/04/05 09:41:13;;;;;;;10.30;5.40;;;;;;;13.60;34.52;98718.71;104376;1104;78083;-68
2021/04/05 09:43:48;;;;;;;8.55;5.50;;;;;;;13.52;35.05;98714.54;104397;1105;64109;-67
2021/04/05 09:46:18;;;;;;;9.52;5.60;;;;;;;13.50;35.02;98721.28;104375;1104;83140;-69
2021/04/05 09:48:45;;;;;;;9.18;5.50;;;;;;;13.27;35.44;98695.17;104380;1105;72659;-70
2021/04/05 09:51:19;;;;;;;9.70;5.10;;;;;;;13.36;35.65;98688.27;104382;1104;85378;-69
2021/04/05 09:53:44;;;;;;;10.85;5.30;;;;;;;13.44;35.90;98695.98;104353;1105;77051;-69
2021/04/05 09:55:59;;;;;;;9.70;5.53;;;;;;;13.60;35.49;98678.84;104375;1104;64249;-72
2021/04/05 09:58:11;;;;;;;10.95;6.15;;;;;;;13.79;35.51;98678.56;104376;1104;81368;-69
2021/04/05 10:00:22;;;;;;;8.77;5.28;;;;;;;14.11;35.79;98679.49;104397;1104;71724;-69
2021/04/05 10:02:45;;;;;;;10.15;6.20;;;;;;;14.29;35.14;98676.42;104439;1104;83798;-69
2021/04/05 10:04:51;;;;;;;10.35;5.95;;;;;;;14.23;35.02;98682.08;104407;1104;77706;-69
2021/04/05 10:06:58;;;;;;;8.63;5.43;;;;;;;14.38;35.52;98676.83;104397;1104;64259;-69
2021/04/05 10:09:08;;;;;;;7.95;5.25;;;;;;;14.46;35.03;98677.19;104376;1104;81027;-67
2021/04/05 10:11:18;;;;;;;10.50;5.78;;;;;;;14.46;34.80;98663.61;104417;1104;71768;-69
2021/04/05 10:13:30;;;;;;;8.68;5.45;;;;;;;14.34;34.86;98671.08;104389;1105;84521;-69
2021/04/05 10:15:36;;;;;;;8.25;5.43;;;;;;;14.17;34.52;98662.98;104362;1104;78698;-70
2021/04/05 10:17:59;;;;;;;7.95;4.85;;;;;;;14.02;34.87;98668.25;104402;1104;64371;-69
2021/04/05 10:20:10;;;;;;;8.15;5.35;;;;;;;13.84;34.88;98648.77;104399;1104;80675;-69